• Join FlightAware (Why Join?)
  • Login
  • US Flag 
05:22AM EDT


 

Airport Tracker/Info


-or-


 

Live Flight TrackerFlight Track Log ✈ FFT903 ✈ 02-Aug-2014 ✈ KTTN - KFLL

Flight Track Log - Related Links

Times and Time Zones

All times are in EDT time to prevent confusion due to time zone crossing. See the FFT903 flight status page for this flight to view local times or setup timezone preferences in your user account.

Time Position Orientation Groundspeed Altitude Reporting Facility
EDT Latitude Longitude Course Direction KTS MPH feet Rate Location/Type
10:30AM 40.2833 -74.8000 131° Southeast 147 169 1,100  Level Philadelphia TRACON
10:31AM 40.2500 -74.7500 131° Southeast 258 297 3,400 1,620 Climbing Philadelphia TRACON
10:32AM 40.2167 -74.8167 237° Southwest 283 326 5,000 1,560 Climbing Philadelphia TRACON
10:34AM 40.1333 -74.8833 211° Southwest 282 325 6,900 900 Climbing Philadelphia TRACON
10:35AM 40.0667 -74.9167 201° Southwest 285 328 7,000 60 Climbing Philadelphia TRACON
10:36AM 40.0000 -74.9500 201° Southwest 286 329 7,100 1,440 Climbing Philadelphia TRACON
10:37AM 39.9500 -75.0333 232° Southwest 281 323 9,800 1,440 Climbing Philadelphia TRACON
10:38AM 39.9167 -75.1167 242° Southwest 290 334 10,000 60 Climbing Philadelphia TRACON
10:39AM 39.9000 -75.2333 259° West 288 331 10,000 60 Level Philadelphia TRACON
10:41AM 39.8781 -75.4694 263° West 312 359 10,400 720 Climbing New York Center
10:42AM 39.8608 -75.5900 259° West 334 384 12,500 2,340 Climbing New York Center
10:43AM 39.8353 -75.7019 253° West 350 403 15,100 2,520 Climbing New York Center
10:44AM 39.7719 -75.8189 235° Southwest 363 418 17,600 1,860 Climbing New York Center
10:45AM 39.7219 -75.9153 236° Southwest 371 427 18,900 1,560 Climbing New York Center
10:46AM 39.6561 -76.0372 235° Southwest 388 447 20,800 1,740 Climbing New York Center
10:47AM 39.5967 -76.1514 236° Southwest 393 452 22,400 1,560 Climbing New York Center
10:48AM 39.5442 -76.2981 245° Southwest 399 459 24,000 1,860 Climbing New York Center
10:49AM 39.5519 -76.4389 274° West 389 448 26,200 1,620 Climbing New York Center
10:50AM 39.5203 -76.5764 253° West 395 455 27,300 1,020 Climbing New York Center
10:51AM 39.4669 -76.6775 236° Southwest 399 459 28,100 900 Climbing Washington Center
10:52AM 39.3972 -76.7947 232° Southwest 417 480 29,000 1,200 Climbing Washington Center
10:53AM 39.3044 -76.8869 218° Southwest 417 480 30,500 1,440 Climbing Washington Center
10:54AM 39.2161 -76.9767 218° Southwest 412 474 32,000 720 Climbing Washington Center
10:55AM 39.1275 -77.0633 217° Southwest 412 474 32,000  Level Washington Center
10:56AM 39.0431 -77.1497 218° Southwest 405 466 32,000  Level Washington Center
10:57AM 38.9564 -77.2333 217° Southwest 398 458 32,000  Level Washington Center
10:58AM 38.8697 -77.3167 217° Southwest 398 458 32,000  Level Washington Center
10:59AM 38.7831 -77.4000 217° Southwest 398 458 32,000  Level Washington Center
11:00AM 38.7047 -77.4806 219° Southwest 398 458 32,000  Level Washington Center
11:01AM 38.6178 -77.5658 217° Southwest 398 458 32,000  Level Washington Center
11:02AM 38.5308 -77.6511 218° Southwest 398 458 32,000  Level Washington Center
11:03AM 38.4439 -77.7361 217° Southwest 398 458 32,000  Level Washington Center
11:04AM 38.3569 -77.8211 217° Southwest 398 458 32,000  Level Washington Center
11:05AM 38.2719 -77.9058 218° Southwest 398 458 32,000  Level Washington Center
11:06AM 38.1847 -77.9903 217° Southwest 398 458 32,000  Level Washington Center
11:07AM 38.0953 -78.0772 217° Southwest 404 465 32,000  Level Washington Center
11:08AM 38.0081 -78.1586 216° Southwest 397 457 32,000  Level Washington Center
11:09AM 37.9164 -78.2503 218° Southwest 389 448 32,000  Level Washington Center
11:10AM 37.8269 -78.3314 216° Southwest 389 448 32,000  Level Washington Center
11:11AM 37.7417 -78.4150 218° Southwest 394 453 32,000  Level Washington Center
11:12AM 37.6542 -78.4956 216° Southwest 399 459 32,000  Level Washington Center
11:13AM 37.5667 -78.5814 218° Southwest 399 459 32,000  Level Washington Center
11:14AM 37.4792 -78.6617 216° Southwest 399 459 32,000  Level Washington Center
11:15AM 37.4019 -78.7369 218° Southwest 399 459 32,000  Level Washington Center
11:16AM 37.3122 -78.8167 215° Southwest 399 459 32,100  Climbing Washington Center
11:17AM 37.2225 -78.8992 216° Southwest 399 459 32,000 -60 Descending Washington Center
11:18AM 37.1325 -78.9811 216° Southwest 399 459 32,000  Level Washington Center
11:19AM 37.0444 -79.0658 218° Southwest 399 459 32,000  Level Washington Center
11:20AM 36.9544 -79.1475 216° Southwest 399 459 32,000  Level Washington Center
11:21AM 36.8667 -79.2292 217° Southwest 399 459 32,100  Climbing Washington Center
11:22AM 36.7744 -79.3103 215° Southwest 399 459 32,000 -60 Descending Washington Center
11:23AM 36.6842 -79.3942 217° Southwest 404 465 32,000  Level Washington Center
11:25AM 36.4739 -79.5853 216° Southwest 397 457 32,000  Level Atlanta Center
11:26AM 36.4011 -79.6511 216° Southwest 403 464 32,000  Level Atlanta Center
11:27AM 36.3022 -79.7417 216° Southwest 403 464 32,000  Level Atlanta Center
11:28AM 36.2111 -79.8236 216° Southwest 403 464 32,000  Level Atlanta Center
11:29AM 36.1242 -79.9028 216° Southwest 403 464 32,000  Level Atlanta Center
11:30AM 36.0353 -79.9919 219° Southwest 403 464 32,000  Level Atlanta Center
11:31AM 35.9528 -80.0858 223° Southwest 409 471 32,100  Climbing Atlanta Center
11:32AM 35.8433 -80.1194 194° South 394 453 32,000 -60 Descending Atlanta Center
11:33AM 35.7319 -80.1553 195° South 405 466 32,000  Level Atlanta Center
11:34AM 35.6081 -80.1944 194° South 416 479 32,000  Level Atlanta Center
11:35AM 35.4964 -80.2278 194° South 421 484 32,000  Level Atlanta Center
11:36AM 35.3828 -80.2611 193° South 421 484 32,000  Level Atlanta Center
11:37AM 35.2689 -80.2942 193° South 421 484 32,000  Level Atlanta Center
11:39AM 35.0003 -80.3761 194° South 431 496 32,000  Level Jacksonville Center
11:40AM 34.8925 -80.4097 194° South 411 473 32,000  Level Jacksonville Center
11:41AM 34.7847 -80.4458 195° South 406 467 32,000  Level Jacksonville Center
11:42AM 34.6750 -80.4767 193° South 401 461 32,000  Level Jacksonville Center
11:43AM 34.5608 -80.5075 193° South 408 470 32,000  Level Jacksonville Center
11:44AM 34.4489 -80.5433 195° South 418 481 32,000  Level Jacksonville Center
11:45AM 34.3325 -80.5742 192° South 423 487 32,000  Level Jacksonville Center
11:46AM 34.2206 -80.6097 195° South 423 487 32,000  Level Jacksonville Center
11:47AM 34.1042 -80.6431 193° South 429 494 32,000  Level Jacksonville Center
11:48AM 33.9983 -80.6758 194° South 429 494 32,000  Level Jacksonville Center
11:49AM 33.8800 -80.7086 193° South 429 494 32,000 -60 Level Jacksonville Center
11:50AM 33.7681 -80.7414 194° South 429 494 31,900  Descending Jacksonville Center
11:51AM 33.6514 -80.7644 189° South 429 494 32,000  Climbing Jacksonville Center
11:52AM 33.5306 -80.7722 183° South 429 494 32,000  Level Jacksonville Center
11:53AM 33.4078 -80.7850 185° South 429 494 32,000 -60 Level Jacksonville Center
11:54AM 33.2867 -80.7928 183° South 435 501 31,900 -60 Descending Jacksonville Center
11:55AM 33.1681 -80.8031 184° South 440 506 31,900  Level Jacksonville Center
11:56AM 33.0450 -80.8158 185° South 440 506 31,900  Level Jacksonville Center
11:57AM 32.9242 -80.8236 183° South 440 506 32,000  Climbing Jacksonville Center
11:58AM 32.7992 -80.8364 185° South 446 513 32,000  Level Jacksonville Center
11:59AM 32.6761 -80.8442 183° South 446 513 32,000  Level Jacksonville Center
12:00PM 32.5531 -80.8544 184° South 446 513 32,000  Level Jacksonville Center
12:01PM 32.4281 -80.8644 184° South 446 513 32,000  Level Jacksonville Center
12:02PM 32.2944 -80.8747 184° South 441 507 32,000  Level Jacksonville Center
12:03PM 32.1714 -80.8850 184° South 446 513 32,000  Level Jacksonville Center
12:04PM 32.0589 -80.8922 183° South 446 513 32,000  Level Jacksonville Center
12:05PM 31.9214 -80.9075 185° South 446 513 32,000  Level Jacksonville Center
12:06PM 31.8003 -80.9150 183° South 446 513 32,100  Climbing Jacksonville Center
12:07PM 31.6878 -80.9247 184° South 446 513 32,000 -60 Descending Jacksonville Center
12:08PM 31.5500 -80.9350 184° South 446 513 32,000  Level Jacksonville Center
12:09PM 31.4375 -80.9447 184° South 457 526 32,100  Climbing Jacksonville Center
12:10PM 31.2978 -80.9572 184° South 462 532 32,000 -60 Descending Jacksonville Center
12:11PM 31.1706 -80.9672 184° South 462 532 32,000  Level Jacksonville Center
12:12PM 31.0433 -80.9769 184° South 462 532 32,000  Level Jacksonville Center
12:13PM 30.9161 -80.9869 184° South 462 532 32,000  Level Jacksonville Center
12:14PM 30.7847 -80.9967 184° South 462 532 32,000  Level Jacksonville Center
12:15PM 30.6556 -81.0042 183° South 462 532 32,000 -60 Level Jacksonville Center
12:16PM 30.5306 -81.0186 186° South 462 532 31,900 -60 Descending Jacksonville Center
12:17PM 30.4033 -81.0283 184° South 462 532 31,900  Level Jacksonville Center
12:18PM 30.2739 -81.0381 184° South 462 532 32,000  Climbing Jacksonville Center
12:19PM 30.1467 -81.0478 184° South 462 532 32,000  Level Jacksonville Center
12:20PM 30.0175 -81.0575 184° South 462 532 32,000  Level Jacksonville Center
12:21PM 29.8861 -81.0694 185° South 462 532 32,000  Level Jacksonville Center
12:22PM 29.7544 -81.0672 179° South 467 537 32,000  Level Jacksonville Center
12:23PM 29.6408 -81.0047 154° Southeast 446 513 32,000  Level Jacksonville Center
12:24PM 29.5208 -80.9331 153° Southeast 460 529 32,000  Level Jacksonville Center
12:25PM 29.4197 -80.8683 151° Southeast 465 535 32,000  Level Jacksonville Center
12:26PM 29.3022 -80.8006 153° Southeast 470 541 32,000  Level Miami Center
12:27PM 29.1847 -80.7314 153° Southeast 471 542 32,000  Level Miami Center
12:28PM 29.0447 -80.6475 152° Southeast 474 545 32,000  Level Miami Center
12:30PM 28.9278 -80.5797 153° Southeast 472 543 32,000  Level Miami Center
12:31PM 28.8006 -80.5050 153° Southeast 471 542 32,000  Level Miami Center
12:32PM 28.6750 -80.4425 156° South 471 542 32,000  Level Miami Center
12:33PM 28.5494 -80.3803 156° South 472 543 32,000  Level Miami Center
12:34PM 28.4239 -80.3183 157° South 471 542 32,000  Level Miami Center
12:35PM 28.3078 -80.2614 157° South 471 542 32,000 -240 Level Miami Center
12:36PM 28.1828 -80.1994 156° South 471 542 31,600 -480 Descending Miami Center
12:37PM 28.0572 -80.1381 157° South 470 541 31,000 -600 Descending Miami Center
12:38PM 27.9314 -80.0769 157° South 470 541 30,400 -540 Descending Miami Center
12:39PM 27.8233 -80.0244 157° South 467 537 30,000 -240 Descending Miami Center
12:40PM 27.7047 -79.9664 157° South 467 537 30,000 -420 Level Miami Center
12:41PM 27.5619 -79.8975 157° South 463 533 29,200 -1,620 Descending Miami Center
12:42PM 27.4367 -79.8375 157° South 455 524 26,700 -2,340 Descending Miami Center
12:43PM 27.3272 -79.7853 157° South 442 509 24,400 -2,160 Descending Miami Center
12:44PM 27.2094 -79.7456 163° South 424 488 22,200 -2,100 Descending Miami Center
12:45PM 27.0936 -79.7100 165° South 418 481 20,100 -2,040 Descending Miami Center
12:46PM 26.9811 -79.6761 165° South 400 460 18,100 -1,980 Descending Miami Center
12:47PM 26.8742 -79.6447 165° South 381 438 16,100 -1,920 Descending Miami Center
12:48PM 26.7761 -79.6711 194° South 362 417 14,200 -1,740 Descending Miami Center
12:49PM 26.6861 -79.7136 203° Southwest 352 405 12,500 -1,680 Descending Miami Center
12:50PM 26.6078 -79.7525 204° Southwest 337 388 11,100 -1,560 Descending Miami Center
12:50PM 26.6003 -79.7550 197° South 336 387 10,900 -1,320 Descending Miami Center
12:51PM 26.5239 -79.7906 203° Southwest 314 361 9,800 -1,380 Descending Miami Center
12:51PM 26.5058 -79.8003 206° Southwest 312 359 9,500 -1,620 Descending Miami Center
12:52PM 26.4461 -79.8289 203° Southwest 299 344 8,200 -1,500 Descending Miami Center
12:52PM 26.4300 -79.8353 200° South 294 338 8,000 -300 Descending Miami Center
12:53PM 26.3706 -79.8700 208° Southwest 297 342 7,900 -540 Descending Miami Center
12:53PM 26.3544 -79.8844 219° Southwest 293 337 7,500 -1,260 Descending Miami Center
12:54PM 26.2933 -79.9442 221° Southwest 293 337 6,300 -840 Descending Miami Center
12:55PM 26.2439 -79.9906 220° Southwest 258 297 6,000 -420 Descending Miami Center
12:55PM 26.2386 -79.9964 225° Southwest 268 308 5,900  Descending Miami Center
12:56PM 26.1925 -80.0403 221° Southwest 239 275 6,000  Climbing Miami Center
12:57PM 26.1886 -80.0444 224° Southwest 240 276 5,900 -120 Descending Miami Center
12:57PM 26.1636 -80.1053 245° Southwest 234 269 5,900 -120 Level Miami Center
12:58PM 26.1633 -80.1103 266° West 236 272 5,800 -1,020 Descending Miami Center
12:58PM 26.1494 -80.1644 254° West 211 243 5,000 -1,200 Descending Miami Center
12:59PM 26.1497 -80.1872 271° West 215 247 4,600 -900 Descending Miami Center
12:59PM 26.1492 -80.2364 269° West 214 246 4,000 -720 Descending Miami Center
01:00PM 26.1494 -80.2522 271° West 213 245 3,900  Descending Miami Center
01:00PM 26.1492 -80.3014 270° West 210 242 4,000  Climbing Miami Center
01:01PM 26.1497 -80.3169 272° West 212 244 3,900 -600 Descending Miami Center
01:01PM 26.1233 -80.3458 225° Southwest 213 245 3,500 -900 Descending Miami Center
01:02PM 26.1056 -80.3425 170° South 211 243 3,000 -1,020 Descending Miami Center
01:02PM 26.0811 -80.3169 137° Southeast 190 219 2,500 -780 Descending Miami Center
01:03PM 26.0781 -80.2975 100° East 195 224 2,200 -900 Descending Miami Center
01:03PM 26.0764 -80.2586 93° East 181 208 1,600 -1,080 Descending Miami Center
01:04PM 26.0772 -80.2325 88° East 178 205 1,100 -840 Descending Miami Center
01:04PM 26.0775 -80.2078 89° East 134 154 700 -720 Descending Miami Center
01:05PM 26.0769 -80.1922 92° East 135 155 400 -720 Descending Miami Center
01:08PM 26.0667 -80.1500 103° East  Level FlightAware Approximate